Time;durP1;ratioP1;P1;durP2;ratioP2;P2;SDS_P1;SDS_P2;PMS_P1;PMS_P2;Temp;Humidity;BMP_temperature;BMP_pressure;BME280_temperature;BME280_humidity;BME280_pressure;Samples;Min_cycle;Max_cycle;Signal;HPM_P1;HPM_P2
2022/03/24 00:02:09;;;;;;;95.73;51.40;;;;;;;7.39;43.17;100264.81;5112674;28;20194;-48
2022/03/24 00:04:35;;;;;;;79.90;45.27;;;;;;;7.19;43.56;100264.91;5112643;28;20313;-49
2022/03/24 00:07:03;;;;;;;53.87;32.73;;;;;;;7.24;43.37;100260.56;5112670;28;20191;-53
2022/03/24 00:09:30;;;;;;;46.27;27.83;;;;;;;7.02;43.95;100248.59;5112533;28;20538;-54
2022/03/24 00:11:59;;;;;;;41.47;25.47;;;;;;;6.88;44.44;100233.13;5112510;28;20198;-54
2022/03/24 00:14:27;;;;;;;45.13;25.30;;;;;;;7.01;44.44;100244.28;5111773;28;20201;-54
2022/03/24 00:16:54;;;;;;;41.17;24.97;;;;;;;7.04;43.88;100248.59;5112461;28;20271;-53
2022/03/24 00:19:22;;;;;;;52.77;29.93;;;;;;;6.85;44.53;100229.72;5112460;28;20195;-54
2022/03/24 00:21:49;;;;;;;40.83;24.83;;;;;;;6.88;44.93;100243.44;5112316;28;20226;-48
2022/03/24 00:24:16;;;;;;;37.17;19.60;;;;;;;6.70;45.12;100238.34;5112265;28;20205;-48
2022/03/24 00:26:43;;;;;;;32.70;17.90;;;;;;;6.61;45.46;100237.50;5112190;28;20208;-47
2022/03/24 00:29:12;;;;;;;21.37;13.07;;;;;;;6.40;45.72;100210.88;5112100;28;20195;-48
2022/03/24 00:31:38;;;;;;;19.63;12.67;;;;;;;6.44;46.48;100227.19;5111977;28;20206;-48
2022/03/24 00:34:05;;;;;;;17.80;11.33;;;;;;;6.29;46.71;100228.06;5112088;28;20199;-48
2022/03/24 00:36:32;;;;;;;19.27;10.70;;;;;;;6.20;47.41;100222.91;5112119;28;20195;-49
2022/03/24 00:39:00;;;;;;;20.87;11.60;;;;;;;5.99;47.87;100222.88;5111805;28;20198;-53
2022/03/24 00:41:28;;;;;;;23.63;10.83;;;;;;;6.02;47.83;100217.72;5111841;28;20234;-54
2022/03/24 00:43:56;;;;;;;21.53;10.33;;;;;;;6.01;48.33;100222.03;5111900;28;20270;-55
2022/03/24 00:46:25;;;;;;;25.93;11.03;;;;;;;5.87;48.75;100220.28;5111948;28;20706;-54
2022/03/24 00:48:53;;;;;;;18.40;10.37;;;;;;;5.91;48.66;100206.56;5112027;28;20604;-53
2022/03/24 00:51:20;;;;;;;21.23;11.00;;;;;;;5.90;48.76;100207.41;5112010;28;20198;-53
2022/03/24 00:53:47;;;;;;;13.57;9.37;;;;;;;5.72;49.68;100203.94;5111790;28;20254;-55
2022/03/24 00:56:14;;;;;;;14.63;9.63;;;;;;;5.62;50.04;100198.78;5111979;28;20584;-53
2022/03/24 00:58:42;;;;;;;17.83;9.50;;;;;;;5.39;50.70;100185.84;5111877;28;20205;-53
2022/03/24 01:01:12;;;;;;;14.37;8.80;;;;;;;5.55;51.15;100203.03;5111567;28;20197;-53
2022/03/24 01:03:40;;;;;;;17.10;9.23;;;;;;;5.63;51.10;100205.63;5111571;28;20661;-48
2022/03/24 01:06:07;;;;;;;20.67;10.30;;;;;;;5.55;51.19;100192.72;5111753;28;20757;-49
2022/03/24 01:08:35;;;;;;;18.50;9.67;;;;;;;5.45;51.62;100184.13;5111348;28;20201;-49
2022/03/24 01:11:04;;;;;;;17.17;10.17;;;;;;;5.34;51.97;100187.53;5111375;28;20194;-48
2022/03/24 01:13:31;;;;;;;14.70;9.53;;;;;;;5.21;52.79;100191.75;5111316;28;20213;-54
2022/03/24 01:15:58;;;;;;;17.17;9.63;;;;;;;5.13;52.72;100190.03;5111212;28;20226;-53
2022/03/24 01:18:25;;;;;;;12.70;9.40;;;;;;;5.00;53.55;100184.81;5111218;28;20190;-53
2022/03/24 01:20:53;;;;;;;19.93;9.90;;;;;;;5.02;53.79;100179.69;5111320;28;20197;-53
2022/03/24 01:23:23;;;;;;;15.17;9.43;;;;;;;5.15;52.97;100175.47;5111374;28;20666;-54
2022/03/24 01:25:50;;;;;;;14.53;8.97;;;;;;;5.17;53.33;100173.75;5110579;28;20683;-53
2022/03/24 01:28:17;;;;;;;17.40;10.20;;;;;;;5.12;54.02;100181.44;5110839;28;20208;-54
2022/03/24 01:30:45;;;;;;;14.80;9.73;;;;;;;4.78;54.96;100172.72;5111007;28;20214;-53
2022/03/24 01:33:12;;;;;;;21.00;10.97;;;;;;;4.65;55.25;100170.94;5110947;28;20293;-54
2022/03/24 01:35:39;;;;;;;16.60;10.40;;;;;;;4.62;55.74;100166.66;5111174;28;20193;-54
2022/03/24 01:38:07;;;;;;;15.83;10.33;;;;;;;4.62;56.22;100155.50;5111196;28;20208;-53
2022/03/24 01:40:34;;;;;;;17.90;9.30;;;;;;;4.63;56.64;100162.34;5111019;28;20220;-53
2022/03/24 01:43:01;;;;;;;16.77;9.53;;;;;;;4.67;56.55;100161.53;5110788;28;20204;-52
2022/03/24 01:45:28;;;;;;;16.10;9.40;;;;;;;4.79;56.77;100155.56;5110528;28;20225;-54
2022/03/24 01:47:55;;;;;;;13.37;9.00;;;;;;;4.72;56.73;100150.41;5110891;28;20208;-53
2022/03/24 01:50:21;;;;;;;16.53;10.37;;;;;;;4.79;56.43;100156.44;5111119;28;20201;-53
2022/03/24 01:52:49;;;;;;;23.83;9.73;;;;;;;4.83;56.19;100162.47;5110765;28;20202;-54
2022/03/24 01:55:17;;;;;;;18.07;9.40;;;;;;;4.85;56.55;100145.34;5110710;28;20195;-53
2022/03/24 01:57:46;;;;;;;17.07;10.13;;;;;;;4.84;56.74;100147.03;5110667;28;20235;-54
2022/03/24 02:00:14;;;;;;;14.57;10.13;;;;;;;4.76;57.13;100140.97;5110521;28;20195;-53
2022/03/24 02:02:43;;;;;;;15.03;9.77;;;;;;;4.80;57.04;100142.72;5110454;28;20207;-55
2022/03/24 02:05:10;;;;;;;15.80;9.27;;;;;;;4.89;56.42;100158.19;5110386;28;20221;-53
2022/03/24 02:07:37;;;;;;;16.07;9.13;;;;;;;4.96;56.43;100154.81;5110557;28;20289;-54
2022/03/24 02:10:07;;;;;;;16.57;9.07;;;;;;;5.05;55.39;100156.56;5110504;28;20200;-49
2022/03/24 02:12:36;;;;;;;17.10;9.37;;;;;;;5.13;55.11;100143.72;5110447;28;20554;-50
2022/03/24 02:15:04;;;;;;;18.13;8.73;;;;;;;5.21;54.43;100160.03;5110455;28;20782;-49
2022/03/24 02:17:31;;;;;;;21.57;9.20;;;;;;;5.20;54.51;100148.88;5110546;28;20659;-48
2022/03/24 02:19:58;;;;;;;16.07;8.43;;;;;;;5.18;54.87;100160.91;5110438;28;20208;-48
2022/03/24 02:22:28;;;;;;;18.63;9.97;;;;;;;5.13;54.95;100154.00;5110442;28;20198;-50
2022/03/24 02:24:55;;;;;;;15.13;9.10;;;;;;;5.11;55.17;100149.72;5110510;28;20278;-47
2022/03/24 02:27:24;;;;;;;21.33;9.37;;;;;;;5.13;55.18;100149.72;5110570;28;20219;-50
2022/03/24 02:29:52;;;;;;;18.63;9.33;;;;;;;5.14;55.05;100137.72;5110592;28;20194;-49
2022/03/24 02:32:21;;;;;;;21.03;10.27;;;;;;;5.22;54.84;100146.31;5110327;28;20191;-48
2022/03/24 02:34:48;;;;;;;15.30;8.73;;;;;;;5.19;54.05;100141.16;5110312;28;20280;-48
2022/03/24 02:37:19;;;;;;;15.57;8.00;;;;;;;5.16;54.01;100141.16;5110544;28;20190;-48
2022/03/24 02:39:49;;;;;;;11.63;7.90;;;;;;;5.20;53.71;100142.84;5114309;28;20202;-50
2022/03/24 02:42:18;;;;;;;13.40;7.40;;;;;;;5.21;53.77;100139.44;5114189;28;20221;-49
2022/03/24 02:44:46;;;;;;;13.40;7.40;;;;;;;5.16;53.59;100141.16;5114454;28;20221;-48
2022/03/24 02:47:14;;;;;;;17.87;7.73;;;;;;;5.18;53.28;100139.44;5114299;28;20226;-47
2022/03/24 02:49:42;;;;;;;16.17;7.37;;;;;;;5.13;52.89;100136.00;5114326;28;20222;-49
2022/03/24 02:52:09;;;;;;;15.30;7.47;;;;;;;5.01;53.32;100132.53;5114238;28;20197;-48
2022/03/24 02:54:37;;;;;;;10.43;7.53;;;;;;;5.01;53.23;100131.66;5113876;28;20219;-49
2022/03/24 02:57:06;;;;;;;9.97;7.23;;;;;;;4.95;53.25;100142.81;5114286;28;20194;-49
2022/03/24 02:59:34;;;;;;;13.30;7.50;;;;;;;4.89;53.42;100132.47;5114312;28;20576;-49
2022/03/24 03:02:03;;;;;;;11.63;7.70;;;;;;;4.90;53.78;100134.19;5114022;28;20198;-48
2022/03/24 03:04:31;;;;;;;15.53;7.73;;;;;;;5.04;53.38;100139.41;5114140;28;20194;-49
2022/03/24 03:06:58;;;;;;;12.23;7.60;;;;;;;5.03;53.51;100129.97;5113938;28;20233;-49
2022/03/24 03:09:26;;;;;;;11.33;7.27;;;;;;;4.87;54.24;100134.19;5114088;28;20229;-53
2022/03/24 03:11:53;;;;;;;12.67;8.10;;;;;;;4.81;53.77;100120.44;5113936;28;20281;-53
2022/03/24 03:14:22;;;;;;;10.27;7.33;;;;;;;4.82;54.22;100122.16;5113786;28;20241;-54
2022/03/24 03:16:49;;;;;;;13.23;7.30;;;;;;;4.90;53.87;100121.34;5113686;28;20229;-52
2022/03/24 03:19:19;;;;;;;13.97;7.50;;;;;;;4.66;54.78;100118.66;5113621;28;20197;-49
2022/03/24 03:21:49;;;;;;;11.17;7.30;;;;;;;4.58;55.17;100120.34;5113794;28;20267;-48
2022/03/24 03:24:17;;;;;;;10.97;7.30;;;;;;;4.57;55.05;100121.19;5113519;28;20244;-47
2022/03/24 03:26:45;;;;;;;11.23;7.07;;;;;;;4.62;54.94;100119.50;5113543;28;20309;-48
2022/03/24 03:29:13;;;;;;;14.50;7.83;;;;;;;4.68;55.06;100112.69;5113667;28;20832;-53
2022/03/24 03:31:41;;;;;;;9.27;7.10;;;;;;;4.63;54.87;100108.34;5113398;28;20652;-52
2022/03/24 03:34:10;;;;;;;10.53;7.40;;;;;;;4.60;55.40;100108.34;5113366;28;20201;-53
2022/03/24 03:36:38;;;;;;;14.77;7.07;;;;;;;4.57;55.16;100116.03;5113316;28;20282;-54
2022/03/24 03:39:06;;;;;;;13.73;7.53;;;;;;;4.59;55.05;100115.22;5113249;28;20195;-53
2022/03/24 03:41:34;;;;;;;12.97;7.37;;;;;;;4.51;55.33;100116.03;5113336;28;20195;-49
2022/03/24 03:44:01;;;;;;;12.13;7.23;;;;;;;4.32;55.64;100097.06;5113246;28;20202;-49
2022/03/24 03:46:28;;;;;;;14.07;7.87;;;;;;;4.52;55.56;100112.56;5113083;28;20222;-49
2022/03/24 03:48:56;;;;;;;11.70;7.33;;;;;;;4.35;55.76;100104.78;5112379;28;20233;-48
2022/03/24 03:51:23;;;;;;;10.77;7.97;;;;;;;4.32;55.96;100113.34;5112819;28;20205;-52
2022/03/24 03:53:50;;;;;;;11.23;7.50;;;;;;;4.42;56.31;100114.25;5113107;28;20198;-49
2022/03/24 03:56:17;;;;;;;10.43;7.50;;;;;;;4.50;55.50;100112.59;5113151;28;20748;-48
2022/03/24 03:58:44;;;;;;;11.07;7.87;;;;;;;4.57;55.52;100105.75;5112893;28;20233;-53
2022/03/24 04:01:11;;;;;;;11.33;7.53;;;;;;;4.58;55.68;100105.78;5112880;28;20200;-53
2022/03/24 04:03:40;;;;;;;17.50;8.47;;;;;;;4.61;55.45;100102.38;5112866;28;20197;-53
2022/03/24 04:06:10;;;;;;;19.50;8.00;;;;;;;4.52;55.76;100097.16;5112681;28;20313;-53
2022/03/24 04:08:38;;;;;;;12.50;7.47;;;;;;;4.44;55.64;100106.56;5112912;28;20224;-53
2022/03/24 04:11:06;;;;;;;13.33;7.60;;;;;;;4.57;55.65;100103.19;5112845;28;20292;-53
2022/03/24 04:13:33;;;;;;;13.50;8.77;;;;;;;4.60;55.47;100098.94;5112508;28;20209;-50
2022/03/24 04:16:00;;;;;;;13.70;8.07;;;;;;;4.56;55.53;100096.31;5112313;28;20228;-48
2022/03/24 04:18:27;;;;;;;13.83;8.23;;;;;;;4.43;55.54;100099.69;5112581;28;20208;-49
2022/03/24 04:20:54;;;;;;;13.03;8.17;;;;;;;4.36;55.89;100094.53;5112402;28;20232;-48
2022/03/24 04:23:23;;;;;;;12.57;7.97;;;;;;;4.38;55.74;100097.97;5112402;28;20201;-49
2022/03/24 04:25:51;;;;;;;16.60;8.70;;;;;;;4.37;55.67;100085.09;5112330;28;20227;-47
2022/03/24 04:28:18;;;;;;;15.00;8.70;;;;;;;4.49;56.17;100085.19;5112247;28;20229;-47
2022/03/24 04:30:45;;;;;;;14.17;8.33;;;;;;;4.50;55.75;100086.03;5112365;28;20582;-48
2022/03/24 04:33:12;;;;;;;13.23;8.97;;;;;;;4.51;55.46;100092.91;5112271;28;20292;-49
2022/03/24 04:35:39;;;;;;;12.40;8.70;;;;;;;4.47;55.87;100083.44;5112034;28;20203;-53
2022/03/24 04:38:07;;;;;;;18.07;8.67;;;;;;;4.55;55.89;100082.63;5112493;28;20568;-53
2022/03/24 04:40:36;;;;;;;18.57;8.50;;;;;;;4.57;55.84;100080.91;5112083;28;20198;-52
2022/03/24 04:43:04;;;;;;;17.20;8.23;;;;;;;4.61;55.27;100081.81;5112207;28;20194;-52
2022/03/24 04:45:32;;;;;;;18.97;8.47;;;;;;;4.65;56.13;100084.38;5111903;28;20203;-51
2022/03/24 04:48:00;;;;;;;18.13;7.73;;;;;;;4.85;55.64;100076.75;5111878;28;20209;-52
2022/03/24 04:50:27;;;;;;;15.57;8.50;;;;;;;5.03;54.68;100084.50;5111864;28;20220;-52
2022/03/24 04:52:54;;;;;;;13.50;8.47;;;;;;;5.24;53.96;100080.25;5105129;28;20219;-52
2022/03/24 04:55:21;;;;;;;13.23;8.57;;;;;;;5.42;53.68;100088.84;5090870;28;20225;-53
2022/03/24 04:57:50;;;;;;;12.70;7.97;;;;;;;5.52;53.58;100094.91;5090422;28;20227;-52
2022/03/24 05:00:18;;;;;;;15.93;8.83;;;;;;;5.66;53.16;100092.31;5091018;28;20227;-54
2022/03/24 05:02:46;;;;;;;16.60;9.63;;;;;;;5.74;52.91;100099.19;5091357;28;20227;-53
2022/03/24 05:05:13;;;;;;;15.10;9.83;;;;;;;5.93;52.74;100091.50;5111281;28;20222;-54
2022/03/24 05:07:41;;;;;;;14.80;8.93;;;;;;;6.10;52.18;100094.88;5110744;28;20308;-53
2022/03/24 05:10:09;;;;;;;16.80;9.53;;;;;;;6.17;51.69;100097.47;5111248;28;20276;-52
2022/03/24 05:12:39;;;;;;;18.47;10.70;;;;;;;6.35;52.13;100096.56;5110481;28;20225;-52
2022/03/24 05:15:11;;;;;;;28.67;15.37;;;;;;;6.46;51.88;100084.50;5111076;28;20269;-55
2022/03/24 05:17:38;;;;;;;25.27;12.40;;;;;;;6.66;51.29;100092.16;5111142;28;20303;-51
2022/03/24 05:20:07;;;;;;;23.00;10.40;;;;;;;6.75;50.59;100068.06;5110850;28;20305;-49
2022/03/24 05:22:34;;;;;;;19.10;9.93;;;;;;;7.09;49.59;100077.34;5110795;28;20222;-50
2022/03/24 05:25:02;;;;;;;21.53;9.00;;;;;;;7.74;49.19;100070.00;5110805;28;20232;-48
2022/03/24 05:27:29;;;;;;;14.77;8.20;;;;;;;9.16;45.73;100080.47;5109858;28;20244;-50
2022/03/24 05:29:55;;;;;;;15.57;8.50;;;;;;;10.87;41.57;100075.78;5109999;28;20227;-50
2022/03/24 05:32:24;;;;;;;17.33;8.70;;;;;;;12.81;38.82;100072.66;5110138;28;20201;-50
2022/03/24 05:34:51;;;;;;;19.00;9.90;;;;;;;14.75;35.07;100075.84;5110871;28;20190;-49
2022/03/24 05:37:18;;;;;;;14.30;9.00;;;;;;;16.34;32.27;100059.84;5111030;28;20194;-50
2022/03/24 05:39:45;;;;;;;12.80;8.67;;;;;;;17.65;30.45;100069.53;5111223;28;20551;-50
2022/03/24 05:42:12;;;;;;;10.73;8.27;;;;;;;18.65;28.94;100074.06;5111125;28;20201;-52
2022/03/24 05:44:38;;;;;;;13.70;9.13;;;;;;;19.58;27.77;100075.06;5110968;28;20591;-51
2022/03/24 05:47:06;;;;;;;18.60;9.33;;;;;;;20.43;26.34;100083.25;5110825;28;20218;-51
2022/03/24 05:49:35;;;;;;;14.18;8.55;;;;;;;21.17;25.63;100069.00;5110797;28;20290;-50
2022/03/24 05:52:03;;;;;;;14.38;8.70;;;;;;;21.76;24.83;100077.53;5110719;28;20209;-53
2022/03/24 05:54:30;;;;;;;16.42;8.50;;;;;;;22.24;24.54;100078.69;5110770;28;20202;-53
2022/03/24 05:56:57;;;;;;;15.65;8.57;;;;;;;22.84;23.69;100078.06;5110753;28;20198;-50
2022/03/24 05:59:25;;;;;;;11.43;7.90;;;;;;;23.08;23.36;100077.19;5110651;28;20218;-51
2022/03/24 06:01:53;;;;;;;7.95;7.15;;;;;;;23.25;23.11;100067.19;5110484;28;20198;-50
2022/03/24 06:04:21;;;;;;;14.15;8.10;;;;;;;23.89;22.40;100085.38;5110714;28;20277;-52
2022/03/24 06:06:53;;;;;;;10.98;7.72;;;;;;;24.66;21.72;100076.88;5110420;28;20233;-50
2022/03/24 06:09:21;;;;;;;20.63;8.43;;;;;;;25.28;21.16;100075.41;5110638;28;20209;-50
2022/03/24 06:11:48;;;;;;;13.48;8.52;;;;;;;25.95;20.58;100077.03;5110269;28;20662;-47
2022/03/24 06:14:15;;;;;;;8.80;7.85;;;;;;;25.70;20.60;100080.88;5109940;28;20197;-50
2022/03/24 06:16:42;;;;;;;12.45;7.68;;;;;;;25.91;20.72;100081.75;5110516;28;20223;-50
2022/03/24 06:19:10;;;;;;;14.35;8.63;;;;;;;26.08;20.12;100060.88;5110655;28;20199;-50
2022/03/24 06:21:38;;;;;;;12.15;8.57;;;;;;;25.80;20.52;100073.00;5110618;28;20631;-50
2022/03/24 06:24:08;;;;;;;9.38;8.07;;;;;;;26.22;19.90;100056.06;5110841;28;20202;-51
2022/03/24 06:26:35;;;;;;;13.70;8.70;;;;;;;26.79;19.34;100076.03;5110304;28;21140;-50
2022/03/24 06:29:02;;;;;;;20.98;9.02;;;;;;;27.04;19.38;100072.06;5110381;28;20191;-51
2022/03/24 06:31:30;;;;;;;13.18;9.75;;;;;;;27.32;19.22;100079.28;5110160;28;20199;-50
2022/03/24 06:33:57;;;;;;;12.82;7.75;;;;;;;27.09;19.14;100069.84;5110558;28;20190;-49
2022/03/24 06:36:24;;;;;;;16.55;8.35;;;;;;;27.50;19.12;100051.97;5110577;28;20187;-49
2022/03/24 06:38:51;;;;;;;21.15;9.10;;;;;;;28.09;18.01;100067.88;5110268;28;20680;-50
2022/03/24 06:41:20;;;;;;;20.08;8.80;;;;;;;27.46;18.41;100062.06;5110220;28;20285;-50
2022/03/24 06:43:47;;;;;;;28.55;10.25;;;;;;;27.40;18.24;100057.28;5110435;28;20309;-50
2022/03/24 06:46:14;;;;;;;28.98;9.90;;;;;;;27.41;18.40;100058.97;5110575;28;20288;-49
2022/03/24 06:48:42;;;;;;;29.83;9.65;;;;;;;27.63;18.23;100068.59;5110553;28;20685;-51
2022/03/24 06:51:08;;;;;;;32.20;9.98;;;;;;;28.55;17.67;100059.06;5110173;28;20198;-50
2022/03/24 06:53:35;;;;;;;26.98;9.68;;;;;;;28.93;17.82;100066.09;5110056;28;20222;-50
2022/03/24 06:56:02;;;;;;;40.33;11.10;;;;;;;29.84;16.77;100061.56;5110314;28;20307;-50
2022/03/24 06:58:31;;;;;;;34.15;9.32;;;;;;;30.25;16.47;100068.94;5113195;28;20643;-52
2022/03/24 07:00:58;;;;;;;69.80;13.05;;;;;;;30.24;16.60;100064.63;5126976;28;20195;-52
2022/03/24 07:03:25;;;;;;;47.17;10.70;;;;;;;29.94;16.55;100062.31;5118311;28;20493;-52
2022/03/24 07:05:51;;;;;;;48.13;10.23;;;;;;;29.67;17.00;100065.97;5124321;28;20194;-53
2022/03/24 07:08:18;;;;;;;40.40;10.70;;;;;;;29.60;16.83;100060.34;5119927;28;20214;-52
2022/03/24 07:10:46;;;;;;;39.85;9.52;;;;;;;29.47;16.96;100059.88;5116917;28;20195;-52
2022/03/24 07:13:13;;;;;;;68.47;12.40;;;;;;;30.09;16.77;100060.81;5118310;28;20186;-52
2022/03/24 07:15:41;;;;;;;64.30;12.40;;;;;;;30.63;16.39;100069.56;5119141;28;20225;-52
2022/03/24 07:18:08;;;;;;;53.15;12.07;;;;;;;31.60;16.00;100069.94;5120061;28;20191;-53
2022/03/24 07:20:36;;;;;;;33.47;10.10;;;;;;;32.21;15.59;100065.13;5110913;28;20585;-52
2022/03/24 07:23:04;;;;;;;93.20;15.13;;;;;;;31.49;15.72;100059.50;5088948;28;20586;-52
2022/03/24 07:25:31;;;;;;;70.95;11.82;;;;;;;32.16;15.40;100064.78;5098087;28;20249;-52
2022/03/24 07:27:59;;;;;;;42.65;9.23;;;;;;;32.79;14.91;100059.47;5130662;27;20229;-52
2022/03/24 07:30:26;;;;;;;30.52;8.93;;;;;;;33.31;14.65;100067.81;5129408;27;20214;-52
2022/03/24 07:32:56;;;;;;;56.70;10.82;;;;;;;33.12;14.34;100073.63;5121229;27;20234;-52
2022/03/24 07:35:25;;;;;;;86.63;15.55;;;;;;;33.15;14.48;100059.81;5129166;27;20218;-52
2022/03/24 07:37:53;;;;;;;32.30;9.18;;;;;;;33.61;14.04;100067.97;5128843;27;20600;-52
2022/03/24 07:40:21;;;;;;;22.65;8.48;;;;;;;34.21;14.04;100059.91;5121674;27;20608;-52
2022/03/24 07:42:49;;;;;;;50.75;11.77;;;;;;;35.35;13.43;100059.47;5120755;27;20256;-53
2022/03/24 07:45:16;;;;;;;31.50;9.02;;;;;;;35.90;13.21;100061.47;5120500;27;20681;-52
2022/03/24 07:48:16;;;;;;;25.42;10.65;;;;;;;35.21;13.32;100069.25;5120070;27;20232;-53
2022/03/24 07:50:45;;;;;;;30.75;12.25;;;;;;;35.39;13.42;100071.56;5121409;27;20277;-53
2022/03/24 07:53:44;;;;;;;25.85;8.48;;;;;;;35.58;13.37;100067.38;5117743;27;20221;-52
2022/03/24 07:56:11;;;;;;;37.60;10.73;;;;;;;35.24;13.41;100063.47;5077216;27;20191;-52
2022/03/24 07:58:38;;;;;;;37.30;9.60;;;;;;;35.93;13.05;100066.50;5127018;27;20198;-53
2022/03/24 08:01:05;;;;;;;21.58;9.43;;;;;;;35.19;13.48;100065.91;5123619;27;20686;-53
2022/03/24 08:03:35;;;;;;;20.55;8.02;;;;;;;34.76;13.80;100054.16;5112351;28;20226;-53
2022/03/24 08:06:02;;;;;;;26.13;10.05;;;;;;;34.72;13.68;100066.31;5112139;28;20226;-54
2022/03/24 08:08:29;;;;;;;41.15;9.73;;;;;;;33.86;14.38;100056.84;5112362;28;20278;-54
2022/03/24 08:10:56;;;;;;;34.83;12.15;;;;;;;32.56;14.74;100051.28;5112034;28;20225;-52
2022/03/24 08:13:24;;;;;;;20.70;9.32;;;;;;;30.76;15.73;100042.31;5112222;28;20226;-53
2022/03/24 08:15:52;;;;;;;10.30;7.55;;;;;;;28.03;17.78;100039.91;5111308;28;20238;-52
2022/03/24 08:18:20;;;;;;;20.98;8.40;;;;;;;26.30;19.00;100037.66;5112553;28;20210;-55
2022/03/24 08:20:49;;;;;;;17.33;8.45;;;;;;;25.11;20.19;100040.56;5112254;28;20437;-53
2022/03/24 08:23:17;;;;;;;14.73;8.27;;;;;;;23.79;21.48;100033.16;5116452;27;20279;-51
2022/03/24 08:25:45;;;;;;;10.55;8.75;;;;;;;23.37;21.97;100024.75;5125491;27;20302;-51
2022/03/24 08:28:13;;;;;;;14.93;8.95;;;;;;;22.04;23.16;100019.22;5116568;27;20280;-50
2022/03/24 08:30:41;;;;;;;13.60;7.85;;;;;;;21.69;23.64;100008.34;5111123;28;20317;-50
2022/03/24 08:33:10;;;;;;;12.93;7.28;;;;;;;21.23;23.89;100010.53;5112117;28;20617;-49
2022/03/24 08:35:37;;;;;;;9.40;7.82;;;;;;;20.89;24.59;100002.09;5123744;27;20237;-51
2022/03/24 08:38:06;;;;;;;14.75;7.50;;;;;;;20.37;25.20;100011.59;5132360;27;20312;-50
2022/03/24 08:40:33;;;;;;;18.83;7.97;;;;;;;19.82;25.87;100006.97;5132149;27;20220;-49
2022/03/24 08:43:00;;;;;;;14.90;7.60;;;;;;;19.53;25.97;99996.34;5132566;27;20246;-50
2022/03/24 08:45:27;;;;;;;16.25;7.55;;;;;;;19.46;26.32;100000.22;5127496;27;20240;-50
2022/03/24 08:47:54;;;;;;;11.60;7.90;;;;;;;19.64;26.27;100002.78;5111726;28;20232;-49
2022/03/24 08:50:23;;;;;;;18.73;8.40;;;;;;;19.33;26.79;99999.22;5111880;28;20329;-49
2022/03/24 08:52:50;;;;;;;20.42;9.13;;;;;;;19.15;27.07;99993.25;5116391;27;20222;-53
2022/03/24 08:55:19;;;;;;;14.32;8.77;;;;;;;19.17;27.28;99995.78;5112235;28;20608;-53
2022/03/24 08:57:47;;;;;;;14.15;8.32;;;;;;;18.96;27.29;99986.47;5116399;27;20228;-52
2022/03/24 09:00:17;;;;;;;11.93;7.90;;;;;;;18.80;27.27;99979.44;5125816;27;20229;-51
2022/03/24 09:02:45;;;;;;;11.02;7.88;;;;;;;18.89;27.25;99979.84;5131952;27;20218;-53
2022/03/24 09:05:13;;;;;;;36.88;9.30;;;;;;;19.26;27.15;99978.63;5131879;27;20218;-53
2022/03/24 09:07:41;;;;;;;14.20;8.32;;;;;;;19.56;25.08;99975.09;5131565;27;20233;-51
2022/03/24 09:10:10;;;;;;;26.02;10.52;;;;;;;19.90;24.66;99973.94;5131962;27;20229;-50
2022/03/24 09:12:39;;;;;;;16.10;8.73;;;;;;;19.92;24.05;99968.59;5131819;27;20362;-51
2022/03/24 09:15:08;;;;;;;27.75;10.60;;;;;;;20.09;23.52;99954.41;5130006;27;20218;-50
2022/03/24 09:17:36;;;;;;;14.98;9.77;;;;;;;20.32;23.36;99967.00;5110899;28;20237;-51
2022/03/24 09:20:03;;;;;;;12.48;8.48;;;;;;;20.40;23.33;99962.16;5111157;28;20224;-51
2022/03/24 09:22:30;;;;;;;16.23;9.18;;;;;;;20.70;23.21;99961.16;5110794;28;20724;-49
2022/03/24 09:24:58;;;;;;;15.32;8.57;;;;;;;20.58;23.63;99957.50;5110864;28;20279;-52
2022/03/24 09:27:25;;;;;;;18.75;9.98;;;;;;;20.69;23.40;99955.03;5111125;28;20705;-52
2022/03/24 09:29:53;;;;;;;17.92;9.10;;;;;;;20.67;23.01;99954.28;5110511;28;20225;-52
2022/03/24 09:32:20;;;;;;;18.20;8.93;;;;;;;20.67;23.02;99955.13;5109259;28;20218;-53
2022/03/24 09:34:47;;;;;;;24.20;10.07;;;;;;;20.59;22.92;99953.94;5110386;28;20222;-53
2022/03/24 09:37:17;;;;;;;20.95;10.50;;;;;;;20.15;23.32;99939.06;5110889;28;20399;-53
2022/03/24 09:39:45;;;;;;;18.88;9.90;;;;;;;20.15;23.37;99949.59;5110305;28;20215;-52
2022/03/24 09:42:12;;;;;;;24.40;10.65;;;;;;;20.04;23.58;99938.03;5110333;28;20233;-52
2022/03/24 09:44:41;;;;;;;13.77;10.05;;;;;;;19.82;23.87;99939.31;5110469;28;20222;-52
2022/03/24 09:47:12;;;;;;;11.45;8.70;;;;;;;19.73;24.21;99921.44;5109216;28;20234;-51
2022/03/24 09:49:40;;;;;;;17.80;9.25;;;;;;;19.79;23.93;99912.31;5111627;28;20639;-51
2022/03/24 09:52:07;;;;;;;38.80;9.95;;;;;;;19.83;32.48;99927.00;5110626;28;20664;-51
2022/03/24 09:54:34;;;;;;;53.72;12.00;;;;;;;19.87;23.95;99929.34;5115636;27;20194;-51
2022/03/24 09:57:04;;;;;;;25.65;10.18;;;;;;;19.75;23.58;99926.63;5114717;27;20199;-52
2022/03/24 09:59:32;;;;;;;23.30;9.95;;;;;;;19.60;23.60;99922.25;5106834;28;20251;-52
2022/03/24 10:01:59;;;;;;;21.52;9.57;;;;;;;19.54;24.08;99908.50;5118316;27;20199;-51
2022/03/24 10:04:27;;;;;;;22.10;10.27;;;;;;;19.47;24.22;99920.31;5120889;27;20294;-51
2022/03/24 10:07:02;;;;;;;39.72;11.65;;;;;;;19.48;23.51;99924.69;5117395;27;20282;-52
2022/03/24 10:09:39;;;;;;;14.43;9.70;;;;;;;19.49;23.90;99915.84;5111481;28;20222;-51
2022/03/24 10:12:07;;;;;;;20.83;9.65;;;;;;;19.64;23.61;99902.72;5110196;28;20584;-51
2022/03/24 10:14:34;;;;;;;18.90;9.27;;;;;;;19.72;25.39;99905.72;5108230;28;20629;-52
2022/03/24 10:17:11;;;;;;;13.55;9.30;;;;;;;19.69;23.01;99898.00;5109496;28;20226;-50
2022/03/24 10:19:40;;;;;;;14.57;9.95;;;;;;;19.79;23.25;99893.88;5109919;28;20705;-51
2022/03/24 10:22:11;;;;;;;19.55;9.82;;;;;;;19.78;23.31;99885.13;5120210;28;20620;-53
2022/03/24 10:24:42;;;;;;;16.60;9.45;;;;;;;19.81;23.33;99889.38;5130240;27;20353;-52
2022/03/24 10:27:11;;;;;;;16.38;9.13;;;;;;;19.88;24.20;99890.66;5130911;28;20740;-51
2022/03/24 10:29:38;;;;;;;20.23;9.75;;;;;;;19.89;23.00;99892.38;5130339;27;20234;-51
2022/03/24 10:32:14;;;;;;;17.95;9.82;;;;;;;19.75;23.35;99881.84;5130445;28;20920;-51
2022/03/24 10:34:46;;;;;;;11.40;9.77;;;;;;;19.57;23.13;99874.09;5130433;27;20294;-52
2022/03/24 10:37:17;;;;;;;13.90;9.02;;;;;;;19.65;22.99;99857.81;5129974;28;20320;-52
2022/03/24 10:39:57;;;;;;;14.55;9.40;;;;;;;19.90;23.17;99867.72;5111496;28;20232;-52
2022/03/24 10:42:27;;;;;;;23.10;10.13;;;;;;;20.03;23.28;99858.13;5110550;28;20198;-51
2022/03/24 10:45:13;;;;;;;15.88;10.00;;;;;;;20.11;23.20;99860.25;5110518;28;20206;-51
2022/03/24 10:47:46;;;;;;;16.77;10.27;;;;;;;20.15;23.44;99857.34;5110097;28;20198;-51
2022/03/24 10:50:26;;;;;;;10.40;9.32;;;;;;;20.06;22.91;99852.66;5110199;28;20228;-52
2022/03/24 10:52:55;;;;;;;14.02;9.70;;;;;;;20.05;23.12;99850.13;5110206;28;20191;-52
2022/03/24 10:55:34;;;;;;;14.48;9.05;;;;;;;20.12;23.68;99852.28;5110314;28;20410;-50
2022/03/24 10:58:03;;;;;;;10.60;9.25;;;;;;;20.09;22.00;99836.63;5110034;28;20579;-51
2022/03/24 11:00:30;;;;;;;15.05;8.88;;;;;;;20.16;22.50;99839.75;5113939;28;20194;-50
2022/03/24 11:02:58;;;;;;;11.00;8.75;;;;;;;20.10;22.05;99835.69;5114086;28;20238;-50
2022/03/24 11:05:26;;;;;;;19.95;9.40;;;;;;;20.14;22.26;99837.22;5114504;28;20289;-50
2022/03/24 11:07:54;;;;;;;11.48;8.90;;;;;;;20.04;23.35;99838.72;5113803;28;20254;-49
2022/03/24 11:10:23;;;;;;;23.88;9.38;;;;;;;20.05;22.66;99831.69;5113824;28;20195;-50
2022/03/24 11:12:53;;;;;;;19.42;9.40;;;;;;;20.08;22.69;99827.06;5113676;28;20604;-51
2022/03/24 11:15:20;;;;;;;17.92;10.82;;;;;;;20.13;22.69;99827.59;5113699;28;20237;-50
2022/03/24 11:17:49;;;;;;;20.48;10.75;;;;;;;20.18;22.36;99815.00;5110132;27;20216;-50
2022/03/24 11:20:24;;;;;;;32.83;10.90;;;;;;;20.02;22.34;99808.16;5113089;28;20218;-50
2022/03/24 11:22:54;;;;;;;28.35;10.20;;;;;;;20.00;22.08;99797.69;5112901;28;20838;-51
2022/03/24 11:25:22;;;;;;;21.02;9.70;;;;;;;19.99;21.86;99797.78;5112215;28;20582;-53
2022/03/24 11:27:50;;;;;;;12.50;9.90;;;;;;;20.05;22.00;99787.72;5112870;28;20203;-51